sensor_id;sensor_type;location;lat;lon;timestamp;temperature;humidity
8008;DHT22;4049;49.468;11.200;2023-07-31T00:00:53;15.40;99.90
8008;DHT22;4049;49.468;11.200;2023-07-31T00:03:19;15.40;99.90
8008;DHT22;4049;49.468;11.200;2023-07-31T00:05:48;15.40;99.90
8008;DHT22;4049;49.468;11.200;2023-07-31T00:08:15;15.30;99.90
8008;DHT22;4049;49.468;11.200;2023-07-31T00:10:53;15.30;99.90
8008;DHT22;4049;49.468;11.200;2023-07-31T00:13:20;15.30;99.90
8008;DHT22;4049;49.468;11.200;2023-07-31T00:15:47;15.30;99.90
8008;DHT22;4049;49.468;11.200;2023-07-31T00:18:14;15.30;99.90
8008;DHT22;4049;49.468;11.200;2023-07-31T00:20:48;15.30;99.90
8008;DHT22;4049;49.468;11.200;2023-07-31T00:23:15;15.20;99.90
8008;DHT22;4049;49.468;11.200;2023-07-31T00:25:45;15.20;99.90
8008;DHT22;4049;49.468;11.200;2023-07-31T00:28:18;15.20;99.90
8008;DHT22;4049;49.468;11.200;2023-07-31T00:30:45;15.20;99.90
8008;DHT22;4049;49.468;11.200;2023-07-31T00:33:12;15.30;99.90
8008;DHT22;4049;49.468;11.200;2023-07-31T00:35:41;15.10;99.90
8008;DHT22;4049;49.468;11.200;2023-07-31T00:38:09;15.10;99.90
8008;DHT22;4049;49.468;11.200;2023-07-31T00:40:43;15.10;99.90
8008;DHT22;4049;49.468;11.200;2023-07-31T00:43:10;15.00;99.90
8008;DHT22;4049;49.468;11.200;2023-07-31T00:45:37;15.00;99.90
8008;DHT22;4049;49.468;11.200;2023-07-31T00:48:05;15.00;99.90
8008;DHT22;4049;49.468;11.200;2023-07-31T00:50:40;15.00;99.90
8008;DHT22;4049;49.468;11.200;2023-07-31T00:53:19;15.00;99.90
8008;DHT22;4049;49.468;11.200;2023-07-31T00:55:46;15.00;99.90
8008;DHT22;4049;49.468;11.200;2023-07-31T00:58:14;15.00;99.90
8008;DHT22;4049;49.468;11.200;2023-07-31T01:00:41;15.00;99.90
8008;DHT22;4049;49.468;11.200;2023-07-31T01:03:11;14.90;99.90
8008;DHT22;4049;49.468;11.200;2023-07-31T01:05:43;15.00;99.90
8008;DHT22;4049;49.468;11.200;2023-07-31T01:08:20;15.00;99.90
8008;DHT22;4049;49.468;11.200;2023-07-31T01:10:53;14.90;99.90
8008;DHT22;4049;49.468;11.200;2023-07-31T01:13:21;14.90;99.90
8008;DHT22;4049;49.468;11.200;2023-07-31T01:15:51;14.90;99.90
8008;DHT22;4049;49.468;11.200;2023-07-31T01:18:17;14.90;99.90
8008;DHT22;4049;49.468;11.200;2023-07-31T01:20:48;14.90;99.90
8008;DHT22;4049;49.468;11.200;2023-07-31T01:23:42;14.90;99.90
8008;DHT22;4049;49.468;11.200;2023-07-31T01:26:19;14.90;99.90
8008;DHT22;4049;49.468;11.200;2023-07-31T01:28:53;14.90;99.90
8008;DHT22;4049;49.468;11.200;2023-07-31T01:31:24;15.00;99.90
8008;DHT22;4049;49.468;11.200;2023-07-31T01:33:53;15.10;99.90
8008;DHT22;4049;49.468;11.200;2023-07-31T01:36:21;15.00;99.90
8008;DHT22;4049;49.468;11.200;2023-07-31T01:38:48;15.00;99.90
8008;DHT22;4049;49.468;11.200;2023-07-31T01:41:23;15.00;99.90
8008;DHT22;4049;49.468;11.200;2023-07-31T01:43:50;15.10;99.90
8008;DHT22;4049;49.468;11.200;2023-07-31T01:46:17;15.00;99.90
8008;DHT22;4049;49.468;11.200;2023-07-31T01:48:44;15.00;99.90
8008;DHT22;4049;49.468;11.200;2023-07-31T01:51:11;15.00;99.90
8008;DHT22;4049;49.468;11.200;2023-07-31T01:53:38;15.00;99.90
8008;DHT22;4049;49.468;11.200;2023-07-31T01:56:05;15.00;99.90
8008;DHT22;4049;49.468;11.200;2023-07-31T01:58:35;15.10;99.90
8008;DHT22;4049;49.468;11.200;2023-07-31T02:01:02;15.10;99.90
8008;DHT22;4049;49.468;11.200;2023-07-31T02:03:29;15.10;99.90
8008;DHT22;4049;49.468;11.200;2023-07-31T02:06:02;15.20;99.90
8008;DHT22;4049;49.468;11.200;2023-07-31T02:08:35;15.20;99.90
8008;DHT22;4049;49.468;11.200;2023-07-31T02:11:01;15.20;99.90
8008;DHT22;4049;49.468;11.200;2023-07-31T02:13:28;15.20;99.90
8008;DHT22;4049;49.468;11.200;2023-07-31T02:15:57;15.20;99.90
8008;DHT22;4049;49.468;11.200;2023-07-31T02:18:24;15.20;99.90
8008;DHT22;4049;49.468;11.200;2023-07-31T02:20:53;15.20;99.90
8008;DHT22;4049;49.468;11.200;2023-07-31T02:23:20;15.30;99.90
8008;DHT22;4049;49.468;11.200;2023-07-31T02:25:47;15.20;99.90
8008;DHT22;4049;49.468;11.200;2023-07-31T02:28:14;15.20;99.90
8008;DHT22;4049;49.468;11.200;2023-07-31T02:30:48;15.20;99.90
8008;DHT22;4049;49.468;11.200;2023-07-31T02:33:18;15.20;99.90
8008;DHT22;4049;49.468;11.200;2023-07-31T02:35:44;15.30;99.90
8008;DHT22;4049;49.468;11.200;2023-07-31T02:38:11;15.20;99.90
8008;DHT22;4049;49.468;11.200;2023-07-31T02:40:39;15.20;99.90
8008;DHT22;4049;49.468;11.200;2023-07-31T02:43:09;15.30;99.90
8008;DHT22;4049;49.468;11.200;2023-07-31T02:45:36;15.30;99.90
8008;DHT22;4049;49.468;11.200;2023-07-31T02:48:09;15.30;99.90
8008;DHT22;4049;49.468;11.200;2023-07-31T02:50:37;15.20;99.90
8008;DHT22;4049;49.468;11.200;2023-07-31T02:53:13;15.30;99.90
8008;DHT22;4049;49.468;11.200;2023-07-31T02:55:41;15.30;99.90
8008;DHT22;4049;49.468;11.200;2023-07-31T02:58:30;15.20;99.90
8008;DHT22;4049;49.468;11.200;2023-07-31T03:00:58;15.20;99.90
8008;DHT22;4049;49.468;11.200;2023-07-31T03:03:25;15.20;99.90
8008;DHT22;4049;49.468;11.200;2023-07-31T03:05:53;15.20;99.90
8008;DHT22;4049;49.468;11.200;2023-07-31T03:08:21;15.20;99.90
8008;DHT22;4049;49.468;11.200;2023-07-31T03:10:48;15.20;99.90
8008;DHT22;4049;49.468;11.200;2023-07-31T03:13:20;15.20;99.90
8008;DHT22;4049;49.468;11.200;2023-07-31T03:15:47;15.20;99.90
8008;DHT22;4049;49.468;11.200;2023-07-31T03:18:14;15.20;99.90
8008;DHT22;4049;49.468;11.200;2023-07-31T03:20:42;15.20;99.90
8008;DHT22;4049;49.468;11.200;2023-07-31T03:23:10;15.10;99.90
8008;DHT22;4049;49.468;11.200;2023-07-31T03:25:37;15.10;99.90
8008;DHT22;4049;49.468;11.200;2023-07-31T03:28:04;15.10;99.90
8008;DHT22;4049;49.468;11.200;2023-07-31T03:30:31;15.20;99.90
8008;DHT22;4049;49.468;11.200;2023-07-31T03:33:08;15.20;99.90
8008;DHT22;4049;49.468;11.200;2023-07-31T03:35:35;15.20;99.90
8008;DHT22;4049;49.468;11.200;2023-07-31T03:38:01;15.20;99.90
8008;DHT22;4049;49.468;11.200;2023-07-31T03:40:30;15.10;99.90
8008;DHT22;4049;49.468;11.200;2023-07-31T03:42:56;15.10;99.90
8008;DHT22;4049;49.468;11.200;2023-07-31T03:45:23;15.10;99.90
8008;DHT22;4049;49.468;11.200;2023-07-31T03:47:50;15.10;99.90
8008;DHT22;4049;49.468;11.200;2023-07-31T03:50:17;15.10;99.90
8008;DHT22;4049;49.468;11.200;2023-07-31T03:52:44;15.10;99.90
8008;DHT22;4049;49.468;11.200;2023-07-31T03:55:11;15.10;99.90
8008;DHT22;4049;49.468;11.200;2023-07-31T03:57:40;15.10;99.90
8008;DHT22;4049;49.468;11.200;2023-07-31T04:00:10;15.10;99.90
8008;DHT22;4049;49.468;11.200;2023-07-31T04:02:40;15.10;99.90
8008;DHT22;4049;49.468;11.200;2023-07-31T04:05:07;15.10;99.90
8008;DHT22;4049;49.468;11.200;2023-07-31T04:07:35;15.10;99.90
8008;DHT22;4049;49.468;11.200;2023-07-31T04:10:02;15.10;99.90
8008;DHT22;4049;49.468;11.200;2023-07-31T04:12:29;15.10;99.90
8008;DHT22;4049;49.468;11.200;2023-07-31T04:14:59;15.10;99.90
8008;DHT22;4049;49.468;11.200;2023-07-31T04:17:35;15.20;99.90
8008;DHT22;4049;49.468;11.200;2023-07-31T04:20:11;15.20;99.90
8008;DHT22;4049;49.468;11.200;2023-07-31T04:22:38;15.20;99.90
8008;DHT22;4049;49.468;11.200;2023-07-31T04:25:05;15.20;99.90
8008;DHT22;4049;49.468;11.200;2023-07-31T04:27:34;15.20;99.90
8008;DHT22;4049;49.468;11.200;2023-07-31T04:30:06;15.20;99.90
8008;DHT22;4049;49.468;11.200;2023-07-31T04:32:50;15.20;99.90
8008;DHT22;4049;49.468;11.200;2023-07-31T04:35:34;15.20;99.90
8008;DHT22;4049;49.468;11.200;2023-07-31T04:38:01;15.20;99.90
8008;DHT22;4049;49.468;11.200;2023-07-31T04:40:28;15.20;99.90
8008;DHT22;4049;49.468;11.200;2023-07-31T04:42:55;15.20;99.90
8008;DHT22;4049;49.468;11.200;2023-07-31T04:45:23;15.20;99.90
8008;DHT22;4049;49.468;11.200;2023-07-31T04:47:50;15.20;99.90
8008;DHT22;4049;49.468;11.200;2023-07-31T04:50:16;15.30;99.90
8008;DHT22;4049;49.468;11.200;2023-07-31T04:52:43;15.30;99.90
8008;DHT22;4049;49.468;11.200;2023-07-31T04:55:10;15.30;99.90
8008;DHT22;4049;49.468;11.200;2023-07-31T04:57:37;15.30;99.90
8008;DHT22;4049;49.468;11.200;2023-07-31T05:00:05;15.30;99.90
8008;DHT22;4049;49.468;11.200;2023-07-31T05:02:33;15.30;99.90
8008;DHT22;4049;49.468;11.200;2023-07-31T05:05:00;15.40;99.90
8008;DHT22;4049;49.468;11.200;2023-07-31T05:07:27;15.40;99.90
8008;DHT22;4049;49.468;11.200;2023-07-31T05:09:53;15.50;99.90
8008;DHT22;4049;49.468;11.200;2023-07-31T05:12:20;15.50;99.90
8008;DHT22;4049;49.468;11.200;2023-07-31T05:14:47;15.60;99.90
8008;DHT22;4049;49.468;11.200;2023-07-31T05:17:14;15.60;99.90
8008;DHT22;4049;49.468;11.200;2023-07-31T05:19:42;15.60;99.90
8008;DHT22;4049;49.468;11.200;2023-07-31T05:22:09;15.60;99.90
8008;DHT22;4049;49.468;11.200;2023-07-31T05:24:36;15.60;99.90
8008;DHT22;4049;49.468;11.200;2023-07-31T05:27:03;15.60;99.90
8008;DHT22;4049;49.468;11.200;2023-07-31T05:29:30;15.60;99.90
8008;DHT22;4049;49.468;11.200;2023-07-31T05:31:57;15.60;99.90
8008;DHT22;4049;49.468;11.200;2023-07-31T05:34:25;15.60;99.90
8008;DHT22;4049;49.468;11.200;2023-07-31T05:36:54;15.70;99.90
8008;DHT22;4049;49.468;11.200;2023-07-31T05:39:20;15.70;99.90
8008;DHT22;4049;49.468;11.200;2023-07-31T05:41:47;15.70;99.90
8008;DHT22;4049;49.468;11.200;2023-07-31T05:44:14;15.80;99.90
8008;DHT22;4049;49.468;11.200;2023-07-31T05:47:08;15.80;99.90
8008;DHT22;4049;49.468;11.200;2023-07-31T05:49:35;15.90;99.90
8008;DHT22;4049;49.468;11.200;2023-07-31T05:52:04;15.90;99.90
8008;DHT22;4049;49.468;11.200;2023-07-31T05:54:32;15.90;99.90
8008;DHT22;4049;49.468;11.200;2023-07-31T05:56:59;15.90;99.90
8008;DHT22;4049;49.468;11.200;2023-07-31T05:59:26;16.00;99.90
8008;DHT22;4049;49.468;11.200;2023-07-31T06:01:53;16.00;99.90
8008;DHT22;4049;49.468;11.200;2023-07-31T06:04:20;16.00;99.90
8008;DHT22;4049;49.468;11.200;2023-07-31T06:06:47;16.10;99.90
8008;DHT22;4049;49.468;11.200;2023-07-31T06:09:16;16.10;99.90
8008;DHT22;4049;49.468;11.200;2023-07-31T06:11:43;16.20;99.90
8008;DHT22;4049;49.468;11.200;2023-07-31T06:14:10;16.20;99.90
8008;DHT22;4049;49.468;11.200;2023-07-31T06:16:37;16.20;99.90
8008;DHT22;4049;49.468;11.200;2023-07-31T06:19:04;16.30;99.90
8008;DHT22;4049;49.468;11.200;2023-07-31T06:21:32;16.30;99.90
8008;DHT22;4049;49.468;11.200;2023-07-31T06:24:00;16.30;99.90
8008;DHT22;4049;49.468;11.200;2023-07-31T06:26:28;16.30;99.90
8008;DHT22;4049;49.468;11.200;2023-07-31T06:28:55;16.40;99.90
8008;DHT22;4049;49.468;11.200;2023-07-31T06:31:22;16.40;99.90
8008;DHT22;4049;49.468;11.200;2023-07-31T06:33:48;16.40;99.90
8008;DHT22;4049;49.468;11.200;2023-07-31T06:36:15;16.50;99.90
8008;DHT22;4049;49.468;11.200;2023-07-31T06:38:42;16.50;99.90
8008;DHT22;4049;49.468;11.200;2023-07-31T06:41:09;16.60;99.90
8008;DHT22;4049;49.468;11.200;2023-07-31T06:43:38;16.70;99.90
8008;DHT22;4049;49.468;11.200;2023-07-31T06:46:05;16.70;99.90
8008;DHT22;4049;49.468;11.200;2023-07-31T06:48:32;16.80;99.90
8008;DHT22;4049;49.468;11.200;2023-07-31T06:51:00;16.90;99.90
8008;DHT22;4049;49.468;11.200;2023-07-31T06:53:28;17.00;99.90
8008;DHT22;4049;49.468;11.200;2023-07-31T06:55:55;17.00;99.90
8008;DHT22;4049;49.468;11.200;2023-07-31T06:58:22;17.10;99.90
8008;DHT22;4049;49.468;11.200;2023-07-31T07:00:50;17.20;99.90
8008;DHT22;4049;49.468;11.200;2023-07-31T07:03:18;17.30;99.90
8008;DHT22;4049;49.468;11.200;2023-07-31T07:05:45;17.40;99.90
8008;DHT22;4049;49.468;11.200;2023-07-31T07:08:12;17.40;99.90
8008;DHT22;4049;49.468;11.200;2023-07-31T07:10:42;17.50;99.90
8008;DHT22;4049;49.468;11.200;2023-07-31T07:13:09;17.60;99.90
8008;DHT22;4049;49.468;11.200;2023-07-31T07:15:39;17.60;99.90
8008;DHT22;4049;49.468;11.200;2023-07-31T07:18:07;17.70;99.90
8008;DHT22;4049;49.468;11.200;2023-07-31T07:20:36;17.70;99.90
8008;DHT22;4049;49.468;11.200;2023-07-31T07:23:24;17.70;99.90
8008;DHT22;4049;49.468;11.200;2023-07-31T07:25:52;17.80;99.90
8008;DHT22;4049;49.468;11.200;2023-07-31T07:28:18;17.80;99.90
8008;DHT22;4049;49.468;11.200;2023-07-31T07:30:51;17.80;99.90
8008;DHT22;4049;49.468;11.200;2023-07-31T07:33:19;17.90;99.90
8008;DHT22;4049;49.468;11.200;2023-07-31T07:35:46;18.00;99.90
8008;DHT22;4049;49.468;11.200;2023-07-31T07:38:14;18.10;99.90
8008;DHT22;4049;49.468;11.200;2023-07-31T07:40:42;18.10;99.90
8008;DHT22;4049;49.468;11.200;2023-07-31T07:43:09;18.20;99.90
8008;DHT22;4049;49.468;11.200;2023-07-31T07:45:36;18.30;99.90
8008;DHT22;4049;49.468;11.200;2023-07-31T07:48:03;18.30;99.90
8008;DHT22;4049;49.468;11.200;2023-07-31T07:50:32;18.30;99.90
8008;DHT22;4049;49.468;11.200;2023-07-31T07:52:59;18.30;99.90
8008;DHT22;4049;49.468;11.200;2023-07-31T07:55:29;18.40;99.90
8008;DHT22;4049;49.468;11.200;2023-07-31T07:57:55;18.40;99.90
8008;DHT22;4049;49.468;11.200;2023-07-31T08:00:22;18.40;99.90
8008;DHT22;4049;49.468;11.200;2023-07-31T08:02:49;18.40;99.90
8008;DHT22;4049;49.468;11.200;2023-07-31T08:05:16;18.50;99.90
8008;DHT22;4049;49.468;11.200;2023-07-31T08:07:45;18.60;99.90
8008;DHT22;4049;49.468;11.200;2023-07-31T08:10:12;18.60;99.90
8008;DHT22;4049;49.468;11.200;2023-07-31T08:12:39;18.70;99.90
8008;DHT22;4049;49.468;11.200;2023-07-31T08:15:07;18.80;99.90
8008;DHT22;4049;49.468;11.200;2023-07-31T08:17:34;18.90;99.90
8008;DHT22;4049;49.468;11.200;2023-07-31T08:20:01;19.00;99.90
8008;DHT22;4049;49.468;11.200;2023-07-31T08:22:28;19.00;99.90
8008;DHT22;4049;49.468;11.200;2023-07-31T08:24:56;19.10;99.90
8008;DHT22;4049;49.468;11.200;2023-07-31T08:27:23;19.20;99.90
8008;DHT22;4049;49.468;11.200;2023-07-31T08:29:53;19.40;99.90
8008;DHT22;4049;49.468;11.200;2023-07-31T08:32:20;19.60;99.90
8008;DHT22;4049;49.468;11.200;2023-07-31T08:34:47;19.70;99.90
8008;DHT22;4049;49.468;11.200;2023-07-31T08:37:14;19.80;99.90
8008;DHT22;4049;49.468;11.200;2023-07-31T08:39:41;19.90;99.90
8008;DHT22;4049;49.468;11.200;2023-07-31T08:42:10;19.90;99.90
8008;DHT22;4049;49.468;11.200;2023-07-31T08:44:37;20.00;99.90
8008;DHT22;4049;49.468;11.200;2023-07-31T08:47:05;20.10;99.90
8008;DHT22;4049;49.468;11.200;2023-07-31T08:49:33;20.30;99.90
8008;DHT22;4049;49.468;11.200;2023-07-31T08:52:01;20.40;99.90
8008;DHT22;4049;49.468;11.200;2023-07-31T08:54:29;20.40;99.90
8008;DHT22;4049;49.468;11.200;2023-07-31T08:56:57;20.50;99.90
8008;DHT22;4049;49.468;11.200;2023-07-31T08:59:28;20.50;99.90
8008;DHT22;4049;49.468;11.200;2023-07-31T09:01:59;20.50;99.90
8008;DHT22;4049;49.468;11.200;2023-07-31T09:04:30;20.50;99.90
8008;DHT22;4049;49.468;11.200;2023-07-31T09:07:02;20.50;99.90
8008;DHT22;4049;49.468;11.200;2023-07-31T09:09:30;20.60;99.90
8008;DHT22;4049;49.468;11.200;2023-07-31T09:11:57;20.60;99.90
8008;DHT22;4049;49.468;11.200;2023-07-31T09:14:24;20.70;99.90
8008;DHT22;4049;49.468;11.200;2023-07-31T09:16:54;20.70;99.90
8008;DHT22;4049;49.468;11.200;2023-07-31T09:19:28;20.70;99.90
8008;DHT22;4049;49.468;11.200;2023-07-31T09:21:55;20.60;99.90
8008;DHT22;4049;49.468;11.200;2023-07-31T09:24:26;20.70;99.90
8008;DHT22;4049;49.468;11.200;2023-07-31T09:26:54;20.70;99.90
8008;DHT22;4049;49.468;11.200;2023-07-31T09:29:22;20.80;99.90
8008;DHT22;4049;49.468;11.200;2023-07-31T09:31:50;20.90;99.90
8008;DHT22;4049;49.468;11.200;2023-07-31T09:34:19;21.20;99.90
8008;DHT22;4049;49.468;11.200;2023-07-31T09:36:47;21.30;99.90
8008;DHT22;4049;49.468;11.200;2023-07-31T09:39:17;21.50;99.90
8008;DHT22;4049;49.468;11.200;2023-07-31T09:41:47;21.60;99.90
8008;DHT22;4049;49.468;11.200;2023-07-31T09:44:14;21.80;99.90
8008;DHT22;4049;49.468;11.200;2023-07-31T09:46:41;21.80;99.90
8008;DHT22;4049;49.468;11.200;2023-07-31T09:49:10;21.80;99.90
8008;DHT22;4049;49.468;11.200;2023-07-31T09:51:39;21.80;99.90
8008;DHT22;4049;49.468;11.200;2023-07-31T09:54:10;21.80;99.90
8008;DHT22;4049;49.468;11.200;2023-07-31T09:56:41;21.70;99.90
8008;DHT22;4049;49.468;11.200;2023-07-31T09:59:11;21.70;99.90
8008;DHT22;4049;49.468;11.200;2023-07-31T10:01:40;21.70;99.90
8008;DHT22;4049;49.468;11.200;2023-07-31T10:04:08;21.60;99.90
8008;DHT22;4049;49.468;11.200;2023-07-31T10:06:36;21.60;99.90
8008;DHT22;4049;49.468;11.200;2023-07-31T10:09:06;21.70;99.90
8008;DHT22;4049;49.468;11.200;2023-07-31T10:11:37;21.70;99.90
8008;DHT22;4049;49.468;11.200;2023-07-31T10:14:05;21.70;99.90
8008;DHT22;4049;49.468;11.200;2023-07-31T10:16:33;21.70;99.90
8008;DHT22;4049;49.468;11.200;2023-07-31T10:19:01;21.70;99.90
8008;DHT22;4049;49.468;11.200;2023-07-31T10:21:28;21.70;99.90
8008;DHT22;4049;49.468;11.200;2023-07-31T10:23:56;21.80;99.90
8008;DHT22;4049;49.468;11.200;2023-07-31T10:26:25;21.90;99.90
8008;DHT22;4049;49.468;11.200;2023-07-31T10:28:53;22.00;99.90
8008;DHT22;4049;49.468;11.200;2023-07-31T10:31:21;22.10;99.90
8008;DHT22;4049;49.468;11.200;2023-07-31T10:33:49;22.10;99.90
8008;DHT22;4049;49.468;11.200;2023-07-31T10:36:17;22.10;99.90
8008;DHT22;4049;49.468;11.200;2023-07-31T10:38:48;22.00;99.90
8008;DHT22;4049;49.468;11.200;2023-07-31T10:41:15;21.90;99.90
8008;DHT22;4049;49.468;11.200;2023-07-31T10:43:46;21.80;99.90
8008;DHT22;4049;49.468;11.200;2023-07-31T10:46:14;21.80;99.90
8008;DHT22;4049;49.468;11.200;2023-07-31T10:48:42;21.80;99.90
8008;DHT22;4049;49.468;11.200;2023-07-31T10:51:10;21.80;99.90
8008;DHT22;4049;49.468;11.200;2023-07-31T10:53:38;21.80;99.90
8008;DHT22;4049;49.468;11.200;2023-07-31T10:56:06;21.80;99.90
8008;DHT22;4049;49.468;11.200;2023-07-31T10:58:34;21.90;99.90
8008;DHT22;4049;49.468;11.200;2023-07-31T11:01:03;22.10;99.90
8008;DHT22;4049;49.468;11.200;2023-07-31T11:03:41;22.10;99.90
8008;DHT22;4049;49.468;11.200;2023-07-31T11:06:09;22.20;99.90
8008;DHT22;4049;49.468;11.200;2023-07-31T11:08:42;22.20;99.90
8008;DHT22;4049;49.468;11.200;2023-07-31T11:11:11;22.30;99.90
8008;DHT22;4049;49.468;11.200;2023-07-31T11:13:44;22.50;99.90
8008;DHT22;4049;49.468;11.200;2023-07-31T11:16:13;22.60;99.90
8008;DHT22;4049;49.468;11.200;2023-07-31T11:18:41;22.50;99.90
8008;DHT22;4049;49.468;11.200;2023-07-31T11:21:08;22.50;99.90
8008;DHT22;4049;49.468;11.200;2023-07-31T11:23:37;22.40;99.90
8008;DHT22;4049;49.468;11.200;2023-07-31T11:26:05;22.30;99.90
8008;DHT22;4049;49.468;11.200;2023-07-31T11:28:33;22.20;99.90
8008;DHT22;4049;49.468;11.200;2023-07-31T11:31:01;22.10;99.90
8008;DHT22;4049;49.468;11.200;2023-07-31T11:33:29;22.00;99.90
8008;DHT22;4049;49.468;11.200;2023-07-31T11:35:56;22.00;99.90
8008;DHT22;4049;49.468;11.200;2023-07-31T11:38:25;22.00;99.90
8008;DHT22;4049;49.468;11.200;2023-07-31T11:40:52;21.90;99.90
8008;DHT22;4049;49.468;11.200;2023-07-31T11:43:20;22.00;99.90
8008;DHT22;4049;49.468;11.200;2023-07-31T11:45:48;21.90;99.90
8008;DHT22;4049;49.468;11.200;2023-07-31T11:48:19;21.90;99.90
8008;DHT22;4049;49.468;11.200;2023-07-31T11:50:49;21.90;99.90
8008;DHT22;4049;49.468;11.200;2023-07-31T11:53:18;21.80;99.90
8008;DHT22;4049;49.468;11.200;2023-07-31T11:55:46;21.70;99.90
8008;DHT22;4049;49.468;11.200;2023-07-31T11:58:14;21.60;99.90
8008;DHT22;4049;49.468;11.200;2023-07-31T12:00:42;21.60;99.90
8008;DHT22;4049;49.468;11.200;2023-07-31T12:03:09;21.50;99.90
8008;DHT22;4049;49.468;11.200;2023-07-31T12:05:37;21.50;99.90
8008;DHT22;4049;49.468;11.200;2023-07-31T12:08:10;21.50;99.90
8008;DHT22;4049;49.468;11.200;2023-07-31T12:10:38;21.50;99.90
8008;DHT22;4049;49.468;11.200;2023-07-31T12:13:07;21.50;99.90
8008;DHT22;4049;49.468;11.200;2023-07-31T12:15:38;21.60;99.90
8008;DHT22;4049;49.468;11.200;2023-07-31T12:18:06;21.70;99.90
8008;DHT22;4049;49.468;11.200;2023-07-31T12:20:34;21.80;99.90
8008;DHT22;4049;49.468;11.200;2023-07-31T12:23:02;21.80;99.90
8008;DHT22;4049;49.468;11.200;2023-07-31T12:25:32;21.90;99.90
8008;DHT22;4049;49.468;11.200;2023-07-31T12:28:04;21.90;99.90
8008;DHT22;4049;49.468;11.200;2023-07-31T12:30:33;21.90;99.90
8008;DHT22;4049;49.468;11.200;2023-07-31T12:33:04;21.90;99.90
8008;DHT22;4049;49.468;11.200;2023-07-31T12:35:39;21.90;99.90
8008;DHT22;4049;49.468;11.200;2023-07-31T12:38:07;21.90;99.90
8008;DHT22;4049;49.468;11.200;2023-07-31T12:40:37;22.00;99.90
8008;DHT22;4049;49.468;11.200;2023-07-31T12:43:04;22.10;99.90
8008;DHT22;4049;49.468;11.200;2023-07-31T12:45:31;22.30;99.90
8008;DHT22;4049;49.468;11.200;2023-07-31T12:47:58;22.40;99.90
8008;DHT22;4049;49.468;11.200;2023-07-31T12:50:26;22.50;99.90
8008;DHT22;4049;49.468;11.200;2023-07-31T12:52:54;22.60;99.90
8008;DHT22;4049;49.468;11.200;2023-07-31T12:55:21;22.70;99.90
8008;DHT22;4049;49.468;11.200;2023-07-31T12:57:50;22.70;99.90
8008;DHT22;4049;49.468;11.200;2023-07-31T13:00:17;22.80;99.90
8008;DHT22;4049;49.468;11.200;2023-07-31T13:02:44;22.90;99.90
8008;DHT22;4049;49.468;11.200;2023-07-31T13:05:11;22.90;99.90
8008;DHT22;4049;49.468;11.200;2023-07-31T13:07:38;23.00;99.90
8008;DHT22;4049;49.468;11.200;2023-07-31T13:10:06;23.00;99.90
8008;DHT22;4049;49.468;11.200;2023-07-31T13:12:34;23.10;99.30
8008;DHT22;4049;49.468;11.200;2023-07-31T13:15:02;23.10;99.90
8008;DHT22;4049;49.468;11.200;2023-07-31T13:17:29;23.10;98.90
8008;DHT22;4049;49.468;11.200;2023-07-31T13:19:56;23.10;99.90
8008;DHT22;4049;49.468;11.200;2023-07-31T13:22:23;23.20;99.70
8008;DHT22;4049;49.468;11.200;2023-07-31T13:24:50;23.20;99.90
8008;DHT22;4049;49.468;11.200;2023-07-31T13:27:17;23.30;97.40
8008;DHT22;4049;49.468;11.200;2023-07-31T13:29:46;23.20;96.60
8008;DHT22;4049;49.468;11.200;2023-07-31T13:32:15;23.20;97.50
8008;DHT22;4049;49.468;11.200;2023-07-31T13:34:42;23.20;96.60
8008;DHT22;4049;49.468;11.200;2023-07-31T13:37:08;23.20;96.70
8008;DHT22;4049;49.468;11.200;2023-07-31T13:39:35;23.30;98.10
8008;DHT22;4049;49.468;11.200;2023-07-31T13:42:03;23.60;98.90
8008;DHT22;4049;49.468;11.200;2023-07-31T13:44:32;23.70;98.60
8008;DHT22;4049;49.468;11.200;2023-07-31T13:46:59;23.90;97.40
8008;DHT22;4049;49.468;11.200;2023-07-31T13:49:27;23.90;96.20
8008;DHT22;4049;49.468;11.200;2023-07-31T13:51:54;23.90;97.10
8008;DHT22;4049;49.468;11.200;2023-07-31T13:54:21;23.90;95.80
8008;DHT22;4049;49.468;11.200;2023-07-31T13:56:48;23.90;93.50
8008;DHT22;4049;49.468;11.200;2023-07-31T13:59:15;23.90;94.70
8008;DHT22;4049;49.468;11.200;2023-07-31T14:01:43;23.90;95.20
8008;DHT22;4049;49.468;11.200;2023-07-31T14:04:10;23.90;93.90
8008;DHT22;4049;49.468;11.200;2023-07-31T14:06:38;23.90;94.00
8008;DHT22;4049;49.468;11.200;2023-07-31T14:09:05;23.90;93.80
8008;DHT22;4049;49.468;11.200;2023-07-31T14:11:32;24.00;94.10
8008;DHT22;4049;49.468;11.200;2023-07-31T14:13:59;24.00;94.60
8008;DHT22;4049;49.468;11.200;2023-07-31T14:16:27;24.00;93.10
8008;DHT22;4049;49.468;11.200;2023-07-31T14:18:54;24.00;94.00
8008;DHT22;4049;49.468;11.200;2023-07-31T14:21:21;24.00;94.20
8008;DHT22;4049;49.468;11.200;2023-07-31T14:23:48;24.00;92.90
8008;DHT22;4049;49.468;11.200;2023-07-31T14:26:15;24.00;91.70
8008;DHT22;4049;49.468;11.200;2023-07-31T14:28:42;24.10;93.20
8008;DHT22;4049;49.468;11.200;2023-07-31T14:31:09;24.10;92.40
8008;DHT22;4049;49.468;11.200;2023-07-31T14:33:35;24.10;94.60
8008;DHT22;4049;49.468;11.200;2023-07-31T14:36:02;24.00;95.30
8008;DHT22;4049;49.468;11.200;2023-07-31T14:38:29;24.00;94.40
8008;DHT22;4049;49.468;11.200;2023-07-31T14:40:57;23.80;93.10
8008;DHT22;4049;49.468;11.200;2023-07-31T14:43:29;23.70;93.10
8008;DHT22;4049;49.468;11.200;2023-07-31T14:45:57;23.60;93.50
8008;DHT22;4049;49.468;11.200;2023-07-31T14:48:25;23.60;92.40
8008;DHT22;4049;49.468;11.200;2023-07-31T14:50:52;23.60;92.90
8008;DHT22;4049;49.468;11.200;2023-07-31T14:53:18;23.50;93.60
8008;DHT22;4049;49.468;11.200;2023-07-31T14:55:45;23.40;91.80
8008;DHT22;4049;49.468;11.200;2023-07-31T14:58:13;23.30;92.70
8008;DHT22;4049;49.468;11.200;2023-07-31T15:00:42;23.30;94.80
8008;DHT22;4049;49.468;11.200;2023-07-31T15:03:09;23.20;93.10
8008;DHT22;4049;49.468;11.200;2023-07-31T15:05:36;23.10;92.90
8008;DHT22;4049;49.468;11.200;2023-07-31T15:08:03;23.10;91.60
8008;DHT22;4049;49.468;11.200;2023-07-31T15:10:30;23.00;91.50
8008;DHT22;4049;49.468;11.200;2023-07-31T15:12:57;22.90;91.90
8008;DHT22;4049;49.468;11.200;2023-07-31T15:15:25;22.80;91.90
8008;DHT22;4049;49.468;11.200;2023-07-31T15:17:52;22.70;92.20
8008;DHT22;4049;49.468;11.200;2023-07-31T15:20:20;22.60;91.80
8008;DHT22;4049;49.468;11.200;2023-07-31T15:22:47;22.60;92.80
8008;DHT22;4049;49.468;11.200;2023-07-31T15:25:14;22.50;92.20
8008;DHT22;4049;49.468;11.200;2023-07-31T15:27:41;22.40;92.80
8008;DHT22;4049;49.468;11.200;2023-07-31T15:30:09;22.40;93.90
8008;DHT22;4049;49.468;11.200;2023-07-31T15:32:38;22.30;93.40
8008;DHT22;4049;49.468;11.200;2023-07-31T15:35:06;22.30;93.70
8008;DHT22;4049;49.468;11.200;2023-07-31T15:37:33;22.30;94.50
8008;DHT22;4049;49.468;11.200;2023-07-31T15:40:00;22.20;95.20
8008;DHT22;4049;49.468;11.200;2023-07-31T15:42:26;22.20;94.60
8008;DHT22;4049;49.468;11.200;2023-07-31T15:44:53;22.20;95.00
8008;DHT22;4049;49.468;11.200;2023-07-31T15:47:20;22.20;95.80
8008;DHT22;4049;49.468;11.200;2023-07-31T15:49:48;22.20;95.20
8008;DHT22;4049;49.468;11.200;2023-07-31T15:52:15;22.10;95.70